sensor_id;sensor_type;location;lat;lon;timestamp;P1;durP1;ratioP1;P2;durP2;ratioP2
81868;SDS011;71320;52.252;13.382;2023-08-06T00:01:10;4.85;;;4.35;;
81868;SDS011;71320;52.252;13.382;2023-08-06T00:06:11;5.18;;;4.68;;
81868;SDS011;71320;52.252;13.382;2023-08-06T00:11:14;4.32;;;3.90;;
81868;SDS011;71320;52.252;13.382;2023-08-06T00:16:16;4.35;;;3.92;;
81868;SDS011;71320;52.252;13.382;2023-08-06T00:21:17;6.10;;;4.57;;
81868;SDS011;71320;52.252;13.382;2023-08-06T00:26:20;5.57;;;4.95;;
81868;SDS011;71320;52.252;13.382;2023-08-06T00:31:22;4.72;;;4.15;;
81868;SDS011;71320;52.252;13.382;2023-08-06T00:36:24;6.43;;;4.05;;
81868;SDS011;71320;52.252;13.382;2023-08-06T00:41:26;4.70;;;4.22;;
81868;SDS011;71320;52.252;13.382;2023-08-06T00:46:28;6.40;;;4.72;;
81868;SDS011;71320;52.252;13.382;2023-08-06T00:51:30;5.82;;;4.40;;
81868;SDS011;71320;52.252;13.382;2023-08-06T00:56:35;5.18;;;4.60;;
81868;SDS011;71320;52.252;13.382;2023-08-06T01:01:38;4.82;;;3.60;;
81868;SDS011;71320;52.252;13.382;2023-08-06T01:06:42;4.25;;;3.83;;
81868;SDS011;71320;52.252;13.382;2023-08-06T01:11:51;5.57;;;4.15;;
81868;SDS011;71320;52.252;13.382;2023-08-06T01:17:00;4.90;;;4.10;;
81868;SDS011;71320;52.252;13.382;2023-08-06T01:22:05;5.63;;;4.40;;
81868;SDS011;71320;52.252;13.382;2023-08-06T01:27:08;5.82;;;3.72;;
81868;SDS011;71320;52.252;13.382;2023-08-06T01:32:15;4.47;;;4.03;;
81868;SDS011;71320;52.252;13.382;2023-08-06T01:37:20;6.25;;;4.13;;
81868;SDS011;71320;52.252;13.382;2023-08-06T01:42:21;4.90;;;3.78;;
81868;SDS011;71320;52.252;13.382;2023-08-06T01:47:23;6.03;;;3.95;;
81868;SDS011;71320;52.252;13.382;2023-08-06T01:52:27;4.20;;;3.60;;
81868;SDS011;71320;52.252;13.382;2023-08-06T01:57:29;6.28;;;4.25;;
81868;SDS011;71320;52.252;13.382;2023-08-06T02:02:30;5.60;;;4.18;;
81868;SDS011;71320;52.252;13.382;2023-08-06T02:07:35;5.05;;;3.85;;
81868;SDS011;71320;52.252;13.382;2023-08-06T02:12:37;5.05;;;4.15;;
81868;SDS011;71320;52.252;13.382;2023-08-06T02:17:39;3.90;;;3.60;;
81868;SDS011;71320;52.252;13.382;2023-08-06T02:22:41;4.10;;;3.70;;
81868;SDS011;71320;52.252;13.382;2023-08-06T02:27:43;6.07;;;4.53;;
81868;SDS011;71320;52.252;13.382;2023-08-06T02:32:45;4.40;;;3.70;;
81868;SDS011;71320;52.252;13.382;2023-08-06T02:37:48;4.22;;;3.83;;
81868;SDS011;71320;52.252;13.382;2023-08-06T02:42:49;6.50;;;3.67;;
81868;SDS011;71320;52.252;13.382;2023-08-06T02:47:51;4.57;;;3.45;;
81868;SDS011;71320;52.252;13.382;2023-08-06T02:52:54;4.88;;;3.45;;
81868;SDS011;71320;52.252;13.382;2023-08-06T02:57:56;4.60;;;3.20;;
81868;SDS011;71320;52.252;13.382;2023-08-06T03:02:58;4.13;;;3.15;;
81868;SDS011;71320;52.252;13.382;2023-08-06T03:08:12;3.53;;;2.60;;
81868;SDS011;71320;52.252;13.382;2023-08-06T03:13:14;3.67;;;3.05;;
81868;SDS011;71320;52.252;13.382;2023-08-06T03:18:16;4.10;;;2.90;;
81868;SDS011;71320;52.252;13.382;2023-08-06T03:23:19;3.65;;;3.20;;
81868;SDS011;71320;52.252;13.382;2023-08-06T03:28:22;4.50;;;3.33;;
81868;SDS011;71320;52.252;13.382;2023-08-06T03:33:24;3.50;;;3.10;;
81868;SDS011;71320;52.252;13.382;2023-08-06T03:38:28;5.32;;;3.60;;
81868;SDS011;71320;52.252;13.382;2023-08-06T03:43:29;4.50;;;3.85;;
81868;SDS011;71320;52.252;13.382;2023-08-06T03:48:31;3.67;;;3.28;;
81868;SDS011;71320;52.252;13.382;2023-08-06T03:53:34;4.43;;;3.88;;
81868;SDS011;71320;52.252;13.382;2023-08-06T03:58:36;5.20;;;4.00;;
81868;SDS011;71320;52.252;13.382;2023-08-06T04:03:38;7.35;;;3.65;;
81868;SDS011;71320;52.252;13.382;2023-08-06T04:08:41;4.28;;;3.88;;
81868;SDS011;71320;52.252;13.382;2023-08-06T04:13:43;5.25;;;3.65;;
81868;SDS011;71320;52.252;13.382;2023-08-06T04:18:44;5.13;;;3.47;;
81868;SDS011;71320;52.252;13.382;2023-08-06T04:23:48;3.75;;;3.38;;
81868;SDS011;71320;52.252;13.382;2023-08-06T04:28:51;3.42;;;3.05;;
81868;SDS011;71320;52.252;13.382;2023-08-06T04:33:54;5.57;;;3.70;;
81868;SDS011;71320;52.252;13.382;2023-08-06T04:38:57;4.28;;;3.40;;
81868;SDS011;71320;52.252;13.382;2023-08-06T04:43:59;4.47;;;3.63;;
81868;SDS011;71320;52.252;13.382;2023-08-06T04:49:00;4.45;;;2.95;;
81868;SDS011;71320;52.252;13.382;2023-08-06T04:54:03;5.40;;;2.88;;
81868;SDS011;71320;52.252;13.382;2023-08-06T04:59:05;3.88;;;3.30;;
81868;SDS011;71320;52.252;13.382;2023-08-06T05:04:07;4.38;;;3.05;;
81868;SDS011;71320;52.252;13.382;2023-08-06T05:09:09;6.35;;;3.30;;
81868;SDS011;71320;52.252;13.382;2023-08-06T05:14:11;4.28;;;2.92;;
81868;SDS011;71320;52.252;13.382;2023-08-06T05:19:13;3.40;;;3.10;;
81868;SDS011;71320;52.252;13.382;2023-08-06T05:24:16;4.43;;;3.17;;
81868;SDS011;71320;52.252;13.382;2023-08-06T05:29:17;3.42;;;2.67;;
81868;SDS011;71320;52.252;13.382;2023-08-06T05:34:19;4.25;;;3.17;;
81868;SDS011;71320;52.252;13.382;2023-08-06T05:39:22;4.25;;;3.03;;
81868;SDS011;71320;52.252;13.382;2023-08-06T05:44:23;3.97;;;3.00;;
81868;SDS011;71320;52.252;13.382;2023-08-06T05:49:25;4.85;;;3.08;;
81868;SDS011;71320;52.252;13.382;2023-08-06T05:54:28;3.90;;;3.33;;
81868;SDS011;71320;52.252;13.382;2023-08-06T05:59:30;5.07;;;3.50;;
81868;SDS011;71320;52.252;13.382;2023-08-06T06:04:31;3.67;;;3.25;;
81868;SDS011;71320;52.252;13.382;2023-08-06T06:09:34;3.63;;;2.80;;
81868;SDS011;71320;52.252;13.382;2023-08-06T06:14:36;3.50;;;2.85;;
81868;SDS011;71320;52.252;13.382;2023-08-06T06:19:38;4.82;;;3.10;;
81868;SDS011;71320;52.252;13.382;2023-08-06T06:24:40;3.50;;;3.03;;
81868;SDS011;71320;52.252;13.382;2023-08-06T06:29:42;5.95;;;3.17;;
81868;SDS011;71320;52.252;13.382;2023-08-06T06:34:44;4.07;;;2.83;;
81868;SDS011;71320;52.252;13.382;2023-08-06T06:39:47;3.08;;;2.78;;
81868;SDS011;71320;52.252;13.382;2023-08-06T06:44:48;3.20;;;2.83;;
81868;SDS011;71320;52.252;13.382;2023-08-06T06:49:50;3.03;;;2.72;;
81868;SDS011;71320;52.252;13.382;2023-08-06T06:54:53;5.28;;;3.60;;
81868;SDS011;71320;52.252;13.382;2023-08-06T06:59:55;4.18;;;3.10;;
81868;SDS011;71320;52.252;13.382;2023-08-06T07:04:56;3.75;;;3.15;;
81868;SDS011;71320;52.252;13.382;2023-08-06T07:09:59;3.88;;;3.00;;
81868;SDS011;71320;52.252;13.382;2023-08-06T07:15:01;5.65;;;3.75;;
81868;SDS011;71320;52.252;13.382;2023-08-06T07:20:03;5.85;;;4.07;;
81868;SDS011;71320;52.252;13.382;2023-08-06T07:25:07;3.85;;;3.55;;
81868;SDS011;71320;52.252;13.382;2023-08-06T07:30:09;4.03;;;3.63;;
81868;SDS011;71320;52.252;13.382;2023-08-06T07:35:11;5.25;;;4.35;;
81868;SDS011;71320;52.252;13.382;2023-08-06T07:40:15;4.25;;;3.85;;
81868;SDS011;71320;52.252;13.382;2023-08-06T07:45:17;4.75;;;4.22;;
81868;SDS011;71320;52.252;13.382;2023-08-06T07:50:19;3.88;;;3.47;;
81868;SDS011;71320;52.252;13.382;2023-08-06T07:55:22;3.55;;;3.05;;
81868;SDS011;71320;52.252;13.382;2023-08-06T08:00:24;4.55;;;3.70;;
81868;SDS011;71320;52.252;13.382;2023-08-06T08:05:25;4.00;;;3.60;;
81868;SDS011;71320;52.252;13.382;2023-08-06T08:10:28;4.30;;;3.90;;
81868;SDS011;71320;52.252;13.382;2023-08-06T08:15:30;4.82;;;3.72;;
81868;SDS011;71320;52.252;13.382;2023-08-06T08:20:32;4.30;;;3.90;;
81868;SDS011;71320;52.252;13.382;2023-08-06T08:25:37;4.53;;;4.13;;
81868;SDS011;71320;52.252;13.382;2023-08-06T08:30:40;5.05;;;4.18;;
81868;SDS011;71320;52.252;13.382;2023-08-06T08:35:41;6.57;;;4.70;;
81868;SDS011;71320;52.252;13.382;2023-08-06T08:40:45;5.25;;;4.75;;
81868;SDS011;71320;52.252;13.382;2023-08-06T08:45:49;6.13;;;4.72;;
81868;SDS011;71320;52.252;13.382;2023-08-06T08:50:51;6.07;;;5.03;;
81868;SDS011;71320;52.252;13.382;2023-08-06T08:55:54;5.63;;;4.82;;
81868;SDS011;71320;52.252;13.382;2023-08-06T09:00:56;6.45;;;5.38;;
81868;SDS011;71320;52.252;13.382;2023-08-06T09:05:58;5.13;;;4.65;;
81868;SDS011;71320;52.252;13.382;2023-08-06T09:11:05;5.85;;;5.30;;
81868;SDS011;71320;52.252;13.382;2023-08-06T09:16:16;5.72;;;4.90;;
81868;SDS011;71320;52.252;13.382;2023-08-06T09:21:17;5.97;;;5.38;;
81868;SDS011;71320;52.252;13.382;2023-08-06T09:26:32;5.70;;;5.20;;
81868;SDS011;71320;52.252;13.382;2023-08-06T09:31:40;6.60;;;5.95;;
81868;SDS011;71320;52.252;13.382;2023-08-06T09:36:42;7.50;;;6.47;;
81868;SDS011;71320;52.252;13.382;2023-08-06T09:41:45;6.93;;;6.22;;
81868;SDS011;71320;52.252;13.382;2023-08-06T09:46:48;7.18;;;5.85;;
81868;SDS011;71320;52.252;13.382;2023-08-06T09:51:50;9.05;;;6.38;;
81868;SDS011;71320;52.252;13.382;2023-08-06T09:56:57;7.65;;;5.70;;
81868;SDS011;71320;52.252;13.382;2023-08-06T10:01:58;7.32;;;6.30;;
81868;SDS011;71320;52.252;13.382;2023-08-06T10:07:00;6.53;;;5.93;;
81868;SDS011;71320;52.252;13.382;2023-08-06T10:12:04;6.65;;;6.05;;
81868;SDS011;71320;52.252;13.382;2023-08-06T10:17:06;8.20;;;6.13;;
81868;SDS011;71320;52.252;13.382;2023-08-06T10:22:09;7.03;;;6.43;;
81868;SDS011;71320;52.252;13.382;2023-08-06T10:27:13;6.80;;;6.10;;
81868;SDS011;71320;52.252;13.382;2023-08-06T10:32:20;7.60;;;5.93;;
81868;SDS011;71320;52.252;13.382;2023-08-06T10:37:22;5.85;;;5.15;;
81868;SDS011;71320;52.252;13.382;2023-08-06T10:42:28;7.65;;;6.10;;
81868;SDS011;71320;52.252;13.382;2023-08-06T10:47:30;6.70;;;6.00;;
81868;SDS011;71320;52.252;13.382;2023-08-06T10:52:38;5.88;;;5.22;;
81868;SDS011;71320;52.252;13.382;2023-08-06T10:57:41;5.45;;;4.78;;
81868;SDS011;71320;52.252;13.382;2023-08-06T11:02:43;5.63;;;4.80;;
81868;SDS011;71320;52.252;13.382;2023-08-06T11:07:45;6.03;;;5.45;;
81868;SDS011;71320;52.252;13.382;2023-08-06T11:12:49;6.03;;;4.53;;
81868;SDS011;71320;52.252;13.382;2023-08-06T11:17:51;6.32;;;4.43;;
81868;SDS011;71320;52.252;13.382;2023-08-06T11:22:52;5.15;;;4.65;;
81868;SDS011;71320;52.252;13.382;2023-08-06T11:27:55;5.25;;;4.75;;
81868;SDS011;71320;52.252;13.382;2023-08-06T11:32:57;5.65;;;4.97;;
81868;SDS011;71320;52.252;13.382;2023-08-06T11:37:58;5.18;;;4.68;;
81868;SDS011;71320;52.252;13.382;2023-08-06T11:43:02;5.93;;;4.78;;
81868;SDS011;71320;52.252;13.382;2023-08-06T11:48:06;5.53;;;5.03;;
81868;SDS011;71320;52.252;13.382;2023-08-06T11:53:11;6.07;;;5.30;;
81868;SDS011;71320;52.252;13.382;2023-08-06T11:58:16;6.68;;;5.25;;
81868;SDS011;71320;52.252;13.382;2023-08-06T12:03:18;4.53;;;4.13;;
81868;SDS011;71320;52.252;13.382;2023-08-06T12:08:25;6.07;;;5.45;;
81868;SDS011;71320;52.252;13.382;2023-08-06T12:13:29;6.22;;;5.38;;
81868;SDS011;71320;52.252;13.382;2023-08-06T12:18:30;5.90;;;5.30;;
81868;SDS011;71320;52.252;13.382;2023-08-06T12:23:32;6.78;;;5.05;;
81868;SDS011;71320;52.252;13.382;2023-08-06T12:28:35;5.35;;;4.85;;
81868;SDS011;71320;52.252;13.382;2023-08-06T12:33:36;5.97;;;5.22;;
81868;SDS011;71320;52.252;13.382;2023-08-06T12:38:38;5.70;;;5.13;;
81868;SDS011;71320;52.252;13.382;2023-08-06T12:43:41;6.65;;;5.75;;
81868;SDS011;71320;52.252;13.382;2023-08-06T12:48:42;6.43;;;4.75;;
81868;SDS011;71320;52.252;13.382;2023-08-06T12:53:44;6.88;;;5.40;;
81868;SDS011;71320;52.252;13.382;2023-08-06T12:58:47;6.18;;;5.57;;
81868;SDS011;71320;52.252;13.382;2023-08-06T13:03:49;5.03;;;4.63;;
81868;SDS011;71320;52.252;13.382;2023-08-06T13:08:50;5.63;;;4.80;;
81868;SDS011;71320;52.252;13.382;2023-08-06T13:13:53;6.63;;;5.78;;
81868;SDS011;71320;52.252;13.382;2023-08-06T13:18:55;5.20;;;4.70;;
81868;SDS011;71320;52.252;13.382;2023-08-06T13:23:56;6.70;;;5.25;;
81868;SDS011;71320;52.252;13.382;2023-08-06T13:29:00;5.32;;;4.82;;
81868;SDS011;71320;52.252;13.382;2023-08-06T13:34:01;5.55;;;5.00;;
81868;SDS011;71320;52.252;13.382;2023-08-06T13:39:03;5.65;;;5.13;;
81868;SDS011;71320;52.252;13.382;2023-08-06T13:44:06;5.88;;;4.07;;
81868;SDS011;71320;52.252;13.382;2023-08-06T13:49:08;4.35;;;3.45;;
81868;SDS011;71320;52.252;13.382;2023-08-06T13:54:09;4.75;;;3.50;;
81868;SDS011;71320;52.252;13.382;2023-08-06T13:59:12;5.80;;;2.60;;
81868;SDS011;71320;52.252;13.382;2023-08-06T14:04:14;2.38;;;1.83;;
81868;SDS011;71320;52.252;13.382;2023-08-06T14:09:16;3.35;;;2.17;;
81868;SDS011;71320;52.252;13.382;2023-08-06T14:14:20;2.97;;;1.58;;
81868;SDS011;71320;52.252;13.382;2023-08-06T14:19:26;5.07;;;1.48;;
81868;SDS011;71320;52.252;13.382;2023-08-06T14:24:27;3.42;;;1.25;;
81868;SDS011;71320;52.252;13.382;2023-08-06T14:29:30;2.33;;;1.20;;
81868;SDS011;71320;52.252;13.382;2023-08-06T14:34:32;3.72;;;1.60;;
81868;SDS011;71320;52.252;13.382;2023-08-06T14:39:33;3.95;;;1.60;;
81868;SDS011;71320;52.252;13.382;2023-08-06T14:44:36;3.95;;;1.33;;
81868;SDS011;71320;52.252;13.382;2023-08-06T14:49:38;4.82;;;1.63;;
81868;SDS011;71320;52.252;13.382;2023-08-06T14:54:39;2.58;;;1.88;;
81868;SDS011;71320;52.252;13.382;2023-08-06T14:59:42;2.45;;;1.92;;
81868;SDS011;71320;52.252;13.382;2023-08-06T15:04:44;6.07;;;2.28;;
81868;SDS011;71320;52.252;13.382;2023-08-06T15:09:46;4.28;;;2.75;;
81868;SDS011;71320;52.252;13.382;2023-08-06T15:14:49;5.43;;;2.65;;
81868;SDS011;71320;52.252;13.382;2023-08-06T15:19:50;3.83;;;2.75;;
81868;SDS011;71320;52.252;13.382;2023-08-06T15:24:52;4.65;;;2.75;;
81868;SDS011;71320;52.252;13.382;2023-08-06T15:29:55;4.22;;;3.15;;
81868;SDS011;71320;52.252;13.382;2023-08-06T15:34:57;4.13;;;2.85;;
81868;SDS011;71320;52.252;13.382;2023-08-06T15:39:58;4.40;;;2.63;;
81868;SDS011;71320;52.252;13.382;2023-08-06T15:45:01;4.38;;;2.40;;
81868;SDS011;71320;52.252;13.382;2023-08-06T15:50:03;5.65;;;2.65;;
81868;SDS011;71320;52.252;13.382;2023-08-06T15:55:07;4.85;;;2.50;;
81868;SDS011;71320;52.252;13.382;2023-08-06T16:00:11;3.80;;;2.47;;
81868;SDS011;71320;52.252;13.382;2023-08-06T16:05:13;4.28;;;2.75;;
81868;SDS011;71320;52.252;13.382;2023-08-06T16:10:14;4.88;;;2.50;;
81868;SDS011;71320;52.252;13.382;2023-08-06T16:15:17;3.30;;;2.78;;
81868;SDS011;71320;52.252;13.382;2023-08-06T16:20:19;4.78;;;2.72;;
81868;SDS011;71320;52.252;13.382;2023-08-06T16:25:21;6.57;;;3.70;;
81868;SDS011;71320;52.252;13.382;2023-08-06T16:30:24;4.35;;;2.78;;
81868;SDS011;71320;52.252;13.382;2023-08-06T16:35:26;4.95;;;2.42;;
81868;SDS011;71320;52.252;13.382;2023-08-06T16:40:28;7.35;;;2.63;;
81868;SDS011;71320;52.252;13.382;2023-08-06T16:45:31;5.13;;;3.10;;
81868;SDS011;71320;52.252;13.382;2023-08-06T16:50:37;3.67;;;2.60;;
81868;SDS011;71320;52.252;13.382;2023-08-06T16:55:39;5.20;;;2.85;;
81868;SDS011;71320;52.252;13.382;2023-08-06T17:00:43;3.97;;;2.85;;
81868;SDS011;71320;52.252;13.382;2023-08-06T17:05:45;4.25;;;2.88;;
81868;SDS011;71320;52.252;13.382;2023-08-06T17:10:47;4.82;;;3.13;;
81868;SDS011;71320;52.252;13.382;2023-08-06T17:15:50;3.88;;;2.85;;
81868;SDS011;71320;52.252;13.382;2023-08-06T17:20:52;4.45;;;3.00;;
81868;SDS011;71320;52.252;13.382;2023-08-06T17:25:54;2.63;;;2.15;;
81868;SDS011;71320;52.252;13.382;2023-08-06T17:30:57;5.82;;;2.47;;
81868;SDS011;71320;52.252;13.382;2023-08-06T17:35:59;5.63;;;3.72;;
81868;SDS011;71320;52.252;13.382;2023-08-06T17:41:00;5.85;;;3.42;;
81868;SDS011;71320;52.252;13.382;2023-08-06T17:46:06;5.90;;;3.10;;
81868;SDS011;71320;52.252;13.382;2023-08-06T17:51:07;3.05;;;2.70;;
81868;SDS011;71320;52.252;13.382;2023-08-06T17:56:09;4.85;;;2.92;;
81868;SDS011;71320;52.252;13.382;2023-08-06T18:01:12;3.38;;;2.63;;
81868;SDS011;71320;52.252;13.382;2023-08-06T18:06:13;4.32;;;2.67;;
81868;SDS011;71320;52.252;13.382;2023-08-06T18:11:15;3.67;;;2.83;;
81868;SDS011;71320;52.252;13.382;2023-08-06T18:16:19;6.22;;;2.83;;
81868;SDS011;71320;52.252;13.382;2023-08-06T18:21:20;4.65;;;2.63;;
81868;SDS011;71320;52.252;13.382;2023-08-06T18:26:22;4.78;;;2.63;;
81868;SDS011;71320;52.252;13.382;2023-08-06T18:31:25;4.82;;;2.65;;
81868;SDS011;71320;52.252;13.382;2023-08-06T18:36:27;5.13;;;2.72;;
81868;SDS011;71320;52.252;13.382;2023-08-06T18:41:29;4.10;;;2.03;;
81868;SDS011;71320;52.252;13.382;2023-08-06T18:46:32;6.60;;;3.03;;
81868;SDS011;71320;52.252;13.382;2023-08-06T18:51:34;3.53;;;2.40;;
81868;SDS011;71320;52.252;13.382;2023-08-06T18:56:36;5.07;;;2.65;;
81868;SDS011;71320;52.252;13.382;2023-08-06T19:01:39;2.58;;;2.38;;
81868;SDS011;71320;52.252;13.382;2023-08-06T19:06:41;4.63;;;2.42;;
81868;SDS011;71320;52.252;13.382;2023-08-06T19:11:42;3.95;;;2.53;;
81868;SDS011;71320;52.252;13.382;2023-08-06T19:16:45;6.22;;;2.65;;
81868;SDS011;71320;52.252;13.382;2023-08-06T19:21:47;2.97;;;2.70;;
81868;SDS011;71320;52.252;13.382;2023-08-06T19:26:49;2.80;;;2.60;;
81868;SDS011;71320;52.252;13.382;2023-08-06T19:31:52;3.40;;;3.00;;
81868;SDS011;71320;52.252;13.382;2023-08-06T19:36:54;5.88;;;2.72;;
81868;SDS011;71320;52.252;13.382;2023-08-06T19:41:55;4.93;;;3.10;;
81868;SDS011;71320;52.252;13.382;2023-08-06T19:46:58;4.95;;;2.50;;
81868;SDS011;71320;52.252;13.382;2023-08-06T19:52:00;5.32;;;2.97;;
81868;SDS011;71320;52.252;13.382;2023-08-06T19:57:01;6.97;;;2.88;;
81868;SDS011;71320;52.252;13.382;2023-08-06T20:02:05;6.93;;;3.03;;
81868;SDS011;71320;52.252;13.382;2023-08-06T20:07:06;7.97;;;3.08;;
81868;SDS011;71320;52.252;13.382;2023-08-06T20:12:08;6.55;;;2.80;;
81868;SDS011;71320;52.252;13.382;2023-08-06T20:17:11;4.47;;;3.00;;
81868;SDS011;71320;52.252;13.382;2023-08-06T20:22:13;7.57;;;2.70;;
81868;SDS011;71320;52.252;13.382;2023-08-06T20:27:14;5.93;;;2.92;;
81868;SDS011;71320;52.252;13.382;2023-08-06T20:32:17;7.45;;;2.92;;
81868;SDS011;71320;52.252;13.382;2023-08-06T20:37:19;8.30;;;2.47;;
81868;SDS011;71320;52.252;13.382;2023-08-06T20:42:20;6.50;;;2.85;;
81868;SDS011;71320;52.252;13.382;2023-08-06T20:47:23;3.38;;;2.67;;
81868;SDS011;71320;52.252;13.382;2023-08-06T20:52:25;6.93;;;2.90;;
81868;SDS011;71320;52.252;13.382;2023-08-06T20:57:26;3.95;;;2.58;;
81868;SDS011;71320;52.252;13.382;2023-08-06T21:02:29;3.42;;;2.80;;
81868;SDS011;71320;52.252;13.382;2023-08-06T21:07:31;5.75;;;3.13;;
81868;SDS011;71320;52.252;13.382;2023-08-06T21:12:33;5.03;;;2.92;;
81868;SDS011;71320;52.252;13.382;2023-08-06T21:17:36;5.40;;;2.83;;
81868;SDS011;71320;52.252;13.382;2023-08-06T21:22:38;3.60;;;2.85;;
81868;SDS011;71320;52.252;13.382;2023-08-06T21:27:39;3.88;;;3.03;;
81868;SDS011;71320;52.252;13.382;2023-08-06T21:32:48;10.60;;;3.10;;
81868;SDS011;71320;52.252;13.382;2023-08-06T21:37:50;5.90;;;3.45;;
81868;SDS011;71320;52.252;13.382;2023-08-06T21:42:52;3.80;;;2.90;;
81868;SDS011;71320;52.252;13.382;2023-08-06T21:47:54;4.55;;;2.95;;
81868;SDS011;71320;52.252;13.382;2023-08-06T21:52:56;3.28;;;2.70;;
81868;SDS011;71320;52.252;13.382;2023-08-06T21:57:58;4.57;;;3.00;;
81868;SDS011;71320;52.252;13.382;2023-08-06T22:03:01;4.53;;;3.33;;
81868;SDS011;71320;52.252;13.382;2023-08-06T22:08:03;7.95;;;2.78;;
81868;SDS011;71320;52.252;13.382;2023-08-06T22:13:04;3.38;;;2.70;;
81868;SDS011;71320;52.252;13.382;2023-08-06T22:18:07;3.35;;;2.90;;
81868;SDS011;71320;52.252;13.382;2023-08-06T22:23:09;3.35;;;2.83;;
81868;SDS011;71320;52.252;13.382;2023-08-06T22:28:11;6.18;;;2.72;;
81868;SDS011;71320;52.252;13.382;2023-08-06T22:33:14;4.68;;;2.67;;
81868;SDS011;71320;52.252;13.382;2023-08-06T22:38:17;2.85;;;2.45;;
81868;SDS011;71320;52.252;13.382;2023-08-06T22:43:19;6.03;;;2.78;;
81868;SDS011;71320;52.252;13.382;2023-08-06T22:48:22;6.20;;;2.42;;
81868;SDS011;71320;52.252;13.382;2023-08-06T22:53:23;3.58;;;2.72;;
81868;SDS011;71320;52.252;13.382;2023-08-06T22:58:25;4.05;;;3.00;;
81868;SDS011;71320;52.252;13.382;2023-08-06T23:03:28;4.30;;;2.65;;
81868;SDS011;71320;52.252;13.382;2023-08-06T23:08:30;4.68;;;2.58;;
81868;SDS011;71320;52.252;13.382;2023-08-06T23:13:31;6.25;;;2.72;;
81868;SDS011;71320;52.252;13.382;2023-08-06T23:18:34;5.15;;;2.20;;
81868;SDS011;71320;52.252;13.382;2023-08-06T23:23:36;4.38;;;1.92;;
81868;SDS011;71320;52.252;13.382;2023-08-06T23:28:38;4.63;;;2.85;;
81868;SDS011;71320;52.252;13.382;2023-08-06T23:33:42;3.67;;;2.22;;
81868;SDS011;71320;52.252;13.382;2023-08-06T23:38:43;4.03;;;2.58;;
81868;SDS011;71320;52.252;13.382;2023-08-06T23:43:45;4.43;;;2.22;;
81868;SDS011;71320;52.252;13.382;2023-08-06T23:48:48;5.50;;;2.58;;
81868;SDS011;71320;52.252;13.382;2023-08-06T23:53:49;3.65;;;2.65;;
81868;SDS011;71320;52.252;13.382;2023-08-06T23:58:51;3.55;;;2.55;;
